Adams Center, New York
Current Conditions -  °F | °C
As of 9:56 AM on Saturday 22 Nov 2014 (Local Time) from KART Reporting Station
Clear Clear  
Wind Chill: 24°   Ceiling: Unl
Heat Index: 32°   Visibility: 10mi
Dew Point:   Wind: 10mph
Humidity: 37%   Direction: 200°SSW
Pressure: 30.18"   Gusts: 20mph
Location:  43.86°N, 76°W
Report Text: KART 221456Z AUTO 20009G17KT 10SM CLR 00/M13 A3018 RMK AO2 SLP225 T00001133 58026
Loading
Personal Weather Stations






























Interactive Weather Map New forecast layout! Learn more

10-Day Weather Forecast

Advertisements
Track Severe Weather on mobile